sensor_id;sensor_type;location;lat;lon;timestamp;temperature;humidity
67093;SHT31;54011;50.772;7.730;2023-04-03T00:02:21;6.04;69.45
67093;SHT31;54011;50.772;7.730;2023-04-03T00:04:50;6.47;68.10
67093;SHT31;54011;50.772;7.730;2023-04-03T00:07:16;6.09;69.73
67093;SHT31;54011;50.772;7.730;2023-04-03T00:09:42;6.18;69.79
67093;SHT31;54011;50.772;7.730;2023-04-03T00:12:07;6.15;69.57
67093;SHT31;54011;50.772;7.730;2023-04-03T00:14:32;6.15;69.19
67093;SHT31;54011;50.772;7.730;2023-04-03T00:16:59;6.43;69.68
67093;SHT31;54011;50.772;7.730;2023-04-03T00:19:26;6.33;70.36
67093;SHT31;54011;50.772;7.730;2023-04-03T00:21:54;6.21;69.57
67093;SHT31;54011;50.772;7.730;2023-04-03T00:24:22;6.15;69.71
67093;SHT31;54011;50.772;7.730;2023-04-03T00:26:48;6.08;70.29
67093;SHT31;54011;50.772;7.730;2023-04-03T00:29:13;5.99;69.61
67093;SHT31;54011;50.772;7.730;2023-04-03T00:31:41;6.05;70.05
67093;SHT31;54011;50.772;7.730;2023-04-03T00:34:07;5.90;71.05
67093;SHT31;54011;50.772;7.730;2023-04-03T00:36:32;6.08;70.29
67093;SHT31;54011;50.772;7.730;2023-04-03T00:38:59;6.09;71.00
67093;SHT31;54011;50.772;7.730;2023-04-03T00:41:26;5.98;70.49
67093;SHT31;54011;50.772;7.730;2023-04-03T00:43:52;6.12;70.11
67093;SHT31;54011;50.772;7.730;2023-04-03T00:46:19;5.97;71.69
67093;SHT31;54011;50.772;7.730;2023-04-03T00:48:45;6.24;70.31
67093;SHT31;54011;50.772;7.730;2023-04-03T00:51:24;6.09;71.44
67093;SHT31;54011;50.772;7.730;2023-04-03T00:53:54;6.35;70.49
67093;SHT31;54011;50.772;7.730;2023-04-03T00:56:25;6.42;70.46
67093;SHT31;54011;50.772;7.730;2023-04-03T00:59:02;6.52;69.99
67093;SHT31;54011;50.772;7.730;2023-04-03T01:01:29;6.35;70.53
67093;SHT31;54011;50.772;7.730;2023-04-03T01:03:56;6.42;70.60
67093;SHT31;54011;50.772;7.730;2023-04-03T01:06:26;6.26;71.48
67093;SHT31;54011;50.772;7.730;2023-04-03T01:08:53;6.06;71.33
67093;SHT31;54011;50.772;7.730;2023-04-03T01:11:20;6.11;71.11
67093;SHT31;54011;50.772;7.730;2023-04-03T01:13:47;6.22;70.96
67093;SHT31;54011;50.772;7.730;2023-04-03T01:16:20;6.08;71.30
67093;SHT31;54011;50.772;7.730;2023-04-03T01:18:48;6.01;70.79
67093;SHT31;54011;50.772;7.730;2023-04-03T01:24:22;5.98;71.08
67093;SHT31;54011;50.772;7.730;2023-04-03T01:26:54;6.36;69.78
67093;SHT31;54011;50.772;7.730;2023-04-03T01:29:21;6.26;70.36
67093;SHT31;54011;50.772;7.730;2023-04-03T01:31:58;6.04;69.73
67093;SHT31;54011;50.772;7.730;2023-04-03T01:34:24;6.22;70.66
67093;SHT31;54011;50.772;7.730;2023-04-03T01:36:52;5.95;70.56
67093;SHT31;54011;50.772;7.730;2023-04-03T01:39:19;5.95;70.83
67093;SHT31;54011;50.772;7.730;2023-04-03T01:41:45;6.11;70.88
67093;SHT31;54011;50.772;7.730;2023-04-03T01:44:31;6.14;71.44
67093;SHT31;54011;50.772;7.730;2023-04-03T01:46:57;5.95;71.76
67093;SHT31;54011;50.772;7.730;2023-04-03T01:49:25;5.74;72.67
67093;SHT31;54011;50.772;7.730;2023-04-03T01:51:55;6.08;71.98
67093;SHT31;54011;50.772;7.730;2023-04-03T01:54:22;5.99;72.32
67093;SHT31;54011;50.772;7.730;2023-04-03T01:56:48;5.85;72.19
67093;SHT31;54011;50.772;7.730;2023-04-03T01:59:16;5.90;72.47
67093;SHT31;54011;50.772;7.730;2023-04-03T02:01:44;5.99;71.61
67093;SHT31;54011;50.772;7.730;2023-04-03T02:04:13;6.15;71.82
67093;SHT31;54011;50.772;7.730;2023-04-03T02:06:38;5.70;72.12
67093;SHT31;54011;50.772;7.730;2023-04-03T02:09:06;5.99;72.40
67093;SHT31;54011;50.772;7.730;2023-04-03T02:11:35;5.94;71.70
67093;SHT31;54011;50.772;7.730;2023-04-03T02:14:00;5.83;71.08
67093;SHT31;54011;50.772;7.730;2023-04-03T02:16:27;5.73;71.76
67093;SHT31;54011;50.772;7.730;2023-04-03T02:18:54;5.60;71.30
67093;SHT31;54011;50.772;7.730;2023-04-03T02:21:20;5.30;72.60
67093;SHT31;54011;50.772;7.730;2023-04-03T02:23:47;5.37;73.06
67093;SHT31;54011;50.772;7.730;2023-04-03T02:26:15;5.37;72.23
67093;SHT31;54011;50.772;7.730;2023-04-03T02:28:45;5.34;72.46
67093;SHT31;54011;50.772;7.730;2023-04-03T02:31:11;5.34;72.33
67093;SHT31;54011;50.772;7.730;2023-04-03T02:33:39;5.23;72.53
67093;SHT31;54011;50.772;7.730;2023-04-03T02:36:09;5.20;72.52
67093;SHT31;54011;50.772;7.730;2023-04-03T02:38:42;5.11;72.49
67093;SHT31;54011;50.772;7.730;2023-04-03T02:41:12;5.19;72.46
67093;SHT31;54011;50.772;7.730;2023-04-03T02:43:41;5.12;72.05
67093;SHT31;54011;50.772;7.730;2023-04-03T02:46:08;5.00;72.29
67093;SHT31;54011;50.772;7.730;2023-04-03T02:48:36;4.99;72.30
67093;SHT31;54011;50.772;7.730;2023-04-03T02:51:01;4.95;71.93
67093;SHT31;54011;50.772;7.730;2023-04-03T02:53:27;4.92;72.22
67093;SHT31;54011;50.772;7.730;2023-04-03T02:55:57;4.92;72.36
67093;SHT31;54011;50.772;7.730;2023-04-03T02:58:23;4.78;72.48
67093;SHT31;54011;50.772;7.730;2023-04-03T03:00:53;4.81;72.39
67093;SHT31;54011;50.772;7.730;2023-04-03T03:03:19;4.78;72.09
67093;SHT31;54011;50.772;7.730;2023-04-03T03:05:45;4.74;73.03
67093;SHT31;54011;50.772;7.730;2023-04-03T03:08:10;4.61;72.10
67093;SHT31;54011;50.772;7.730;2023-04-03T03:10:36;4.72;72.11
67093;SHT31;54011;50.772;7.730;2023-04-03T03:13:03;4.74;72.08
67093;SHT31;54011;50.772;7.730;2023-04-03T03:15:30;4.74;72.39
67093;SHT31;54011;50.772;7.730;2023-04-03T03:17:55;4.68;72.43
67093;SHT31;54011;50.772;7.730;2023-04-03T03:20:27;4.69;72.24
67093;SHT31;54011;50.772;7.730;2023-04-03T03:22:55;4.55;72.21
67093;SHT31;54011;50.772;7.730;2023-04-03T03:25:21;4.60;72.71
67093;SHT31;54011;50.772;7.730;2023-04-03T03:27:48;4.57;72.63
67093;SHT31;54011;50.772;7.730;2023-04-03T03:30:14;4.58;72.27
67093;SHT31;54011;50.772;7.730;2023-04-03T03:32:42;4.62;72.53
67093;SHT31;54011;50.772;7.730;2023-04-03T03:35:10;4.34;72.95
67093;SHT31;54011;50.772;7.730;2023-04-03T03:37:36;4.54;72.59
67093;SHT31;54011;50.772;7.730;2023-04-03T03:40:05;4.53;72.67
67093;SHT31;54011;50.772;7.730;2023-04-03T03:42:33;4.57;72.63
67093;SHT31;54011;50.772;7.730;2023-04-03T03:44:58;4.45;72.37
67093;SHT31;54011;50.772;7.730;2023-04-03T03:47:24;4.34;72.46
67093;SHT31;54011;50.772;7.730;2023-04-03T03:49:50;4.29;72.73
67093;SHT31;54011;50.772;7.730;2023-04-03T03:52:17;4.32;72.79
67093;SHT31;54011;50.772;7.730;2023-04-03T03:54:43;4.23;73.14
67093;SHT31;54011;50.772;7.730;2023-04-03T03:57:08;4.37;72.76
67093;SHT31;54011;50.772;7.730;2023-04-03T03:59:36;4.27;72.44
67093;SHT31;54011;50.772;7.730;2023-04-03T04:02:03;4.29;72.34
67093;SHT31;54011;50.772;7.730;2023-04-03T04:04:30;4.24;72.72
67093;SHT31;54011;50.772;7.730;2023-04-03T04:07:00;4.16;72.49
67093;SHT31;54011;50.772;7.730;2023-04-03T04:09:26;4.20;72.56
67093;SHT31;54011;50.772;7.730;2023-04-03T04:11:53;4.14;72.44
67093;SHT31;54011;50.772;7.730;2023-04-03T04:14:21;4.04;72.60
67093;SHT31;54011;50.772;7.730;2023-04-03T04:16:50;4.06;72.47
67093;SHT31;54011;50.772;7.730;2023-04-03T04:19:25;4.04;72.87
67093;SHT31;54011;50.772;7.730;2023-04-03T04:21:53;3.99;72.70
67093;SHT31;54011;50.772;7.730;2023-04-03T04:24:19;3.97;72.87
67093;SHT31;54011;50.772;7.730;2023-04-03T04:26:46;3.96;72.73
67093;SHT31;54011;50.772;7.730;2023-04-03T04:29:16;3.90;72.65
67093;SHT31;54011;50.772;7.730;2023-04-03T04:31:48;3.97;72.67
67093;SHT31;54011;50.772;7.730;2023-04-03T04:34:13;3.89;72.56
67093;SHT31;54011;50.772;7.730;2023-04-03T04:36:40;3.90;72.64
67093;SHT31;54011;50.772;7.730;2023-04-03T04:39:07;3.89;72.86
67093;SHT31;54011;50.772;7.730;2023-04-03T04:41:34;3.87;72.58
67093;SHT31;54011;50.772;7.730;2023-04-03T04:44:03;3.86;72.60
67093;SHT31;54011;50.772;7.730;2023-04-03T04:46:31;3.86;72.74
67093;SHT31;54011;50.772;7.730;2023-04-03T04:48:58;3.78;73.24
67093;SHT31;54011;50.772;7.730;2023-04-03T04:51:27;3.79;73.54
67093;SHT31;54011;50.772;7.730;2023-04-03T04:53:55;3.79;73.04
67093;SHT31;54011;50.772;7.730;2023-04-03T04:56:21;3.65;72.96
67093;SHT31;54011;50.772;7.730;2023-04-03T04:58:47;3.68;72.97
67093;SHT31;54011;50.772;7.730;2023-04-03T05:01:14;3.81;73.12
67093;SHT31;54011;50.772;7.730;2023-04-03T05:03:49;3.82;72.95
67093;SHT31;54011;50.772;7.730;2023-04-03T05:06:15;3.86;73.07
67093;SHT31;54011;50.772;7.730;2023-04-03T05:08:44;3.82;72.95
67093;SHT31;54011;50.772;7.730;2023-04-03T05:11:09;3.86;72.52
67093;SHT31;54011;50.772;7.730;2023-04-03T05:13:35;3.78;72.44
67093;SHT31;54011;50.772;7.730;2023-04-03T05:16:00;3.83;72.33
67093;SHT31;54011;50.772;7.730;2023-04-03T05:18:27;3.75;72.09
67093;SHT31;54011;50.772;7.730;2023-04-03T05:20:55;3.71;72.63
67093;SHT31;54011;50.772;7.730;2023-04-03T05:23:24;3.73;72.36
67093;SHT31;54011;50.772;7.730;2023-04-03T05:25:50;3.78;72.45
67093;SHT31;54011;50.772;7.730;2023-04-03T05:28:17;3.71;72.61
67093;SHT31;54011;50.772;7.730;2023-04-03T05:30:43;3.64;73.01
67093;SHT31;54011;50.772;7.730;2023-04-03T05:33:08;3.52;73.27
67093;SHT31;54011;50.772;7.730;2023-04-03T05:35:43;3.68;72.77
67093;SHT31;54011;50.772;7.730;2023-04-03T05:38:13;3.76;72.85
67093;SHT31;54011;50.772;7.730;2023-04-03T05:40:38;3.81;72.31
67093;SHT31;54011;50.772;7.730;2023-04-03T05:43:05;3.81;72.65
67093;SHT31;54011;50.772;7.730;2023-04-03T05:45:34;3.71;72.93
67093;SHT31;54011;50.772;7.730;2023-04-03T05:48:00;3.78;72.83
67093;SHT31;54011;50.772;7.730;2023-04-03T05:50:26;3.64;73.76
67093;SHT31;54011;50.772;7.730;2023-04-03T05:52:55;3.76;73.71
67093;SHT31;54011;50.772;7.730;2023-04-03T05:55:21;3.65;74.01
67093;SHT31;54011;50.772;7.730;2023-04-03T05:57:48;3.78;73.38
67093;SHT31;54011;50.772;7.730;2023-04-03T06:00:14;3.76;73.24
67093;SHT31;54011;50.772;7.730;2023-04-03T06:02:43;3.78;72.86
67093;SHT31;54011;50.772;7.730;2023-04-03T06:05:15;3.86;72.26
67093;SHT31;54011;50.772;7.730;2023-04-03T06:07:40;3.96;73.03
67093;SHT31;54011;50.772;7.730;2023-04-03T06:10:06;4.00;72.56
67093;SHT31;54011;50.772;7.730;2023-04-03T06:12:32;3.85;73.71
67093;SHT31;54011;50.772;7.730;2023-04-03T06:14:58;3.87;73.84
67093;SHT31;54011;50.772;7.730;2023-04-03T06:17:23;3.97;73.24
67093;SHT31;54011;50.772;7.730;2023-04-03T06:19:49;3.90;73.57
67093;SHT31;54011;50.772;7.730;2023-04-03T06:22:15;3.92;73.41
67093;SHT31;54011;50.772;7.730;2023-04-03T06:24:41;4.00;72.58
67093;SHT31;54011;50.772;7.730;2023-04-03T06:27:07;4.17;72.78
67093;SHT31;54011;50.772;7.730;2023-04-03T06:29:32;4.21;72.83
67093;SHT31;54011;50.772;7.730;2023-04-03T06:31:59;4.06;73.19
67093;SHT31;54011;50.772;7.730;2023-04-03T06:34:24;4.00;73.38
67093;SHT31;54011;50.772;7.730;2023-04-03T06:36:49;4.29;72.23
67093;SHT31;54011;50.772;7.730;2023-04-03T06:39:18;4.23;72.08
67093;SHT31;54011;50.772;7.730;2023-04-03T06:41:46;4.18;71.63
67093;SHT31;54011;50.772;7.730;2023-04-03T06:44:11;4.50;71.28
67093;SHT31;54011;50.772;7.730;2023-04-03T06:46:38;4.29;71.27
67093;SHT31;54011;50.772;7.730;2023-04-03T06:49:05;4.54;70.80
67093;SHT31;54011;50.772;7.730;2023-04-03T06:51:33;4.50;70.90
67093;SHT31;54011;50.772;7.730;2023-04-03T06:53:59;4.43;70.84
67093;SHT31;54011;50.772;7.730;2023-04-03T06:56:25;4.58;70.34
67093;SHT31;54011;50.772;7.730;2023-04-03T06:58:52;4.65;69.98
67093;SHT31;54011;50.772;7.730;2023-04-03T07:01:20;4.60;70.11
67093;SHT31;54011;50.772;7.730;2023-04-03T07:03:47;4.96;69.83
67093;SHT31;54011;50.772;7.730;2023-04-03T07:06:14;4.92;68.93
67093;SHT31;54011;50.772;7.730;2023-04-03T07:08:40;5.40;68.33
67093;SHT31;54011;50.772;7.730;2023-04-03T07:11:08;5.18;69.01
67093;SHT31;54011;50.772;7.730;2023-04-03T07:13:34;5.44;67.91
67093;SHT31;54011;50.772;7.730;2023-04-03T07:16:00;5.79;66.85
67093;SHT31;54011;50.772;7.730;2023-04-03T07:18:26;5.87;66.47
67093;SHT31;54011;50.772;7.730;2023-04-03T07:20:51;5.88;66.81
67093;SHT31;54011;50.772;7.730;2023-04-03T07:23:18;5.93;66.09
67093;SHT31;54011;50.772;7.730;2023-04-03T07:25:44;6.25;65.26
67093;SHT31;54011;50.772;7.730;2023-04-03T07:28:11;6.54;65.31
67093;SHT31;54011;50.772;7.730;2023-04-03T07:31:04;6.77;63.51
67093;SHT31;54011;50.772;7.730;2023-04-03T07:33:31;5.95;64.96
67093;SHT31;54011;50.772;7.730;2023-04-03T07:35:57;6.09;65.27
67093;SHT31;54011;50.772;7.730;2023-04-03T07:38:23;5.84;65.21
67093;SHT31;54011;50.772;7.730;2023-04-03T07:40:49;6.24;64.51
67093;SHT31;54011;50.772;7.730;2023-04-03T07:43:16;7.11;63.58
67093;SHT31;54011;50.772;7.730;2023-04-03T07:45:42;6.39;63.61
67093;SHT31;54011;50.772;7.730;2023-04-03T07:48:09;6.72;62.71
67093;SHT31;54011;50.772;7.730;2023-04-03T07:50:35;7.45;61.73
67093;SHT31;54011;50.772;7.730;2023-04-03T07:53:02;7.22;62.99
67093;SHT31;54011;50.772;7.730;2023-04-03T07:55:28;7.19;62.19
67093;SHT31;54011;50.772;7.730;2023-04-03T07:57:54;7.41;61.71
67093;SHT31;54011;50.772;7.730;2023-04-03T08:00:20;7.35;61.57
67093;SHT31;54011;50.772;7.730;2023-04-03T08:02:46;7.05;61.66
67093;SHT31;54011;50.772;7.730;2023-04-03T08:05:18;6.88;61.21
67093;SHT31;54011;50.772;7.730;2023-04-03T08:07:46;7.79;58.62
67093;SHT31;54011;50.772;7.730;2023-04-03T08:10:12;7.86;58.16
67093;SHT31;54011;50.772;7.730;2023-04-03T08:12:37;7.48;58.73
67093;SHT31;54011;50.772;7.730;2023-04-03T08:15:04;8.07;57.79
67093;SHT31;54011;50.772;7.730;2023-04-03T08:17:29;7.44;58.75
67093;SHT31;54011;50.772;7.730;2023-04-03T08:19:55;8.27;57.75
67093;SHT31;54011;50.772;7.730;2023-04-03T08:22:20;7.75;57.73
67093;SHT31;54011;50.772;7.730;2023-04-03T08:24:46;8.37;56.74
67093;SHT31;54011;50.772;7.730;2023-04-03T08:27:11;8.80;56.10
67093;SHT31;54011;50.772;7.730;2023-04-03T08:29:37;8.95;54.58
67093;SHT31;54011;50.772;7.730;2023-04-03T08:32:07;9.19;56.05
67093;SHT31;54011;50.772;7.730;2023-04-03T08:34:33;9.00;56.45
67093;SHT31;54011;50.772;7.730;2023-04-03T08:37:03;8.27;56.26
67093;SHT31;54011;50.772;7.730;2023-04-03T08:39:28;8.62;56.19
67093;SHT31;54011;50.772;7.730;2023-04-03T08:41:57;8.55;55.08
67093;SHT31;54011;50.772;7.730;2023-04-03T08:49:52;10.46;52.56
67093;SHT31;54011;50.772;7.730;2023-04-03T08:52:21;8.96;54.94
67093;SHT31;54011;50.772;7.730;2023-04-03T08:55:00;8.54;54.37
67093;SHT31;54011;50.772;7.730;2023-04-03T08:57:33;9.52;53.19
67093;SHT31;54011;50.772;7.730;2023-04-03T09:00:06;9.55;53.28
67093;SHT31;54011;50.772;7.730;2023-04-03T09:02:35;10.60;51.23
67093;SHT31;54011;50.772;7.730;2023-04-03T09:05:19;9.06;52.25
67093;SHT31;54011;50.772;7.730;2023-04-03T09:07:49;10.15;51.35
67093;SHT31;54011;50.772;7.730;2023-04-03T09:10:24;10.28;50.73
67093;SHT31;54011;50.772;7.730;2023-04-03T09:12:59;9.44;51.50
67093;SHT31;54011;50.772;7.730;2023-04-03T09:15:25;9.73;51.45
67093;SHT31;54011;50.772;7.730;2023-04-03T09:20:46;10.06;48.60
67093;SHT31;54011;50.772;7.730;2023-04-03T09:23:22;10.49;47.21
67093;SHT31;54011;50.772;7.730;2023-04-03T09:25:53;10.59;48.72
67093;SHT31;54011;50.772;7.730;2023-04-03T09:28:20;10.67;45.96
67093;SHT31;54011;50.772;7.730;2023-04-03T09:30:45;10.53;47.30
67093;SHT31;54011;50.772;7.730;2023-04-03T09:33:12;10.90;46.97
67093;SHT31;54011;50.772;7.730;2023-04-03T09:35:40;11.17;46.00
67093;SHT31;54011;50.772;7.730;2023-04-03T09:40:37;11.32;44.40
67093;SHT31;54011;50.772;7.730;2023-04-03T09:45:46;11.75;43.28
67093;SHT31;54011;50.772;7.730;2023-04-03T09:51:00;11.14;44.72
67093;SHT31;54011;50.772;7.730;2023-04-03T09:53:45;11.15;42.68
67093;SHT31;54011;50.772;7.730;2023-04-03T09:58:47;11.87;42.68
67093;SHT31;54011;50.772;7.730;2023-04-03T10:01:34;11.34;41.31
67093;SHT31;54011;50.772;7.730;2023-04-03T10:06:31;12.49;39.99
67093;SHT31;54011;50.772;7.730;2023-04-03T10:09:22;12.44;39.39
67093;SHT31;54011;50.772;7.730;2023-04-03T10:14:22;12.52;40.56
67093;SHT31;54011;50.772;7.730;2023-04-03T10:19:41;12.71;40.20
67093;SHT31;54011;50.772;7.730;2023-04-03T10:22:47;13.50;37.28
67093;SHT31;54011;50.772;7.730;2023-04-03T10:28:02;13.43;37.06
67093;SHT31;54011;50.772;7.730;2023-04-03T10:33:20;13.65;38.42
67093;SHT31;54011;50.772;7.730;2023-04-03T10:36:10;14.00;39.64
67093;SHT31;54011;50.772;7.730;2023-04-03T10:44:17;13.70;35.15
67093;SHT31;54011;50.772;7.730;2023-04-03T10:46:49;14.02;36.33
67093;SHT31;54011;50.772;7.730;2023-04-03T10:52:22;14.73;35.01
67093;SHT31;54011;50.772;7.730;2023-04-03T10:57:32;15.27;33.31
67093;SHT31;54011;50.772;7.730;2023-04-03T11:00:04;14.40;35.07
67093;SHT31;54011;50.772;7.730;2023-04-03T11:02:50;14.53;34.25
67093;SHT31;54011;50.772;7.730;2023-04-03T11:08:05;14.25;34.80
67093;SHT31;54011;50.772;7.730;2023-04-03T11:10:41;15.23;34.80
67093;SHT31;54011;50.772;7.730;2023-04-03T11:15:58;14.39;34.06
67093;SHT31;54011;50.772;7.730;2023-04-03T11:18:33;14.36;33.74
67093;SHT31;54011;50.772;7.730;2023-04-03T11:21:15;14.59;32.74
67093;SHT31;54011;50.772;7.730;2023-04-03T11:23:47;14.79;33.98
67093;SHT31;54011;50.772;7.730;2023-04-03T11:26:15;14.74;34.02
67093;SHT31;54011;50.772;7.730;2023-04-03T11:28:41;15.20;32.71
67093;SHT31;54011;50.772;7.730;2023-04-03T11:33:55;15.83;34.00
67093;SHT31;54011;50.772;7.730;2023-04-03T11:36:31;15.38;34.01
67093;SHT31;54011;50.772;7.730;2023-04-03T11:39:15;15.56;33.49
67093;SHT31;54011;50.772;7.730;2023-04-03T11:41:42;15.27;34.60
67093;SHT31;54011;50.772;7.730;2023-04-03T11:44:34;15.41;34.56
67093;SHT31;54011;50.772;7.730;2023-04-03T11:47:04;15.34;33.28
67093;SHT31;54011;50.772;7.730;2023-04-03T12:06:42;14.72;33.28
67093;SHT31;54011;50.772;7.730;2023-04-03T12:08:53;15.65;34.32
67093;SHT31;54011;50.772;7.730;2023-04-03T12:11:30;15.41;33.99
67093;SHT31;54011;50.772;7.730;2023-04-03T12:16:30;13.95;35.13
67093;SHT31;54011;50.772;7.730;2023-04-03T12:29:34;15.44;34.59
67093;SHT31;54011;50.772;7.730;2023-04-03T12:32:24;16.43;34.13
67093;SHT31;54011;50.772;7.730;2023-04-03T12:37:57;16.18;32.87
67093;SHT31;54011;50.772;7.730;2023-04-03T12:48:48;17.08;32.33
67093;SHT31;54011;50.772;7.730;2023-04-03T12:51:19;17.49;32.61
67093;SHT31;54011;50.772;7.730;2023-04-03T12:53:46;16.53;33.41
67093;SHT31;54011;50.772;7.730;2023-04-03T12:56:25;16.27;33.69
67093;SHT31;54011;50.772;7.730;2023-04-03T12:58:53;16.81;32.68
67093;SHT31;54011;50.772;7.730;2023-04-03T13:01:25;17.93;31.70
67093;SHT31;54011;50.772;7.730;2023-04-03T13:03:56;17.42;31.13
67093;SHT31;54011;50.772;7.730;2023-04-03T13:06:34;17.33;30.73
67093;SHT31;54011;50.772;7.730;2023-04-03T13:09:00;16.68;33.12
67093;SHT31;54011;50.772;7.730;2023-04-03T13:11:36;18.12;31.00
67093;SHT31;54011;50.772;7.730;2023-04-03T13:14:12;17.80;31.13
67093;SHT31;54011;50.772;7.730;2023-04-03T13:16:39;18.41;31.56
67093;SHT31;54011;50.772;7.730;2023-04-03T13:19:16;18.43;30.36
67093;SHT31;54011;50.772;7.730;2023-04-03T13:21:42;16.18;32.59
67093;SHT31;54011;50.772;7.730;2023-04-03T13:24:09;16.27;31.64
67093;SHT31;54011;50.772;7.730;2023-04-03T13:26:35;18.24;32.18
67093;SHT31;54011;50.772;7.730;2023-04-03T13:29:07;18.89;29.42
67093;SHT31;54011;50.772;7.730;2023-04-03T13:31:40;18.43;31.08
67093;SHT31;54011;50.772;7.730;2023-04-03T13:36:46;18.90;30.12
67093;SHT31;54011;50.772;7.730;2023-04-03T13:39:24;17.16;31.98
67093;SHT31;54011;50.772;7.730;2023-04-03T13:41:55;15.58;32.82
67093;SHT31;54011;50.772;7.730;2023-04-03T13:46:55;17.78;30.45
67093;SHT31;54011;50.772;7.730;2023-04-03T13:49:34;18.22;30.83
67093;SHT31;54011;50.772;7.730;2023-04-03T13:52:25;15.78;32.03
67093;SHT31;54011;50.772;7.730;2023-04-03T13:54:54;17.40;32.85
67093;SHT31;54011;50.772;7.730;2023-04-03T13:57:21;17.57;29.85
67093;SHT31;54011;50.772;7.730;2023-04-03T13:59:46;18.09;29.58
67093;SHT31;54011;50.772;7.730;2023-04-03T14:02:22;16.89;31.20
67093;SHT31;54011;50.772;7.730;2023-04-03T14:04:55;17.44;30.25
67093;SHT31;54011;50.772;7.730;2023-04-03T14:07:24;18.73;29.98
67093;SHT31;54011;50.772;7.730;2023-04-03T14:09:50;18.31;30.31
67093;SHT31;54011;50.772;7.730;2023-04-03T14:12:31;19.62;28.40
67093;SHT31;54011;50.772;7.730;2023-04-03T14:15:00;17.95;29.69
67093;SHT31;54011;50.772;7.730;2023-04-03T14:17:27;18.19;31.30
67093;SHT31;54011;50.772;7.730;2023-04-03T14:19:54;18.90;29.99
67093;SHT31;54011;50.772;7.730;2023-04-03T14:22:31;19.50;29.79
67093;SHT31;54011;50.772;7.730;2023-04-03T14:24:58;18.96;30.97
67093;SHT31;54011;50.772;7.730;2023-04-03T14:27:29;19.00;28.07
67093;SHT31;54011;50.772;7.730;2023-04-03T14:29:57;15.87;29.98
67093;SHT31;54011;50.772;7.730;2023-04-03T14:32:24;17.18;29.32
67093;SHT31;54011;50.772;7.730;2023-04-03T14:34:51;17.18;29.55
67093;SHT31;54011;50.772;7.730;2023-04-03T14:37:25;17.49;29.83
67093;SHT31;54011;50.772;7.730;2023-04-03T14:39:53;18.66;28.06
67093;SHT31;54011;50.772;7.730;2023-04-03T14:42:23;16.75;30.17
67093;SHT31;54011;50.772;7.730;2023-04-03T14:44:52;18.02;28.86
67093;SHT31;54011;50.772;7.730;2023-04-03T14:47:20;17.81;28.01
67093;SHT31;54011;50.772;7.730;2023-04-03T14:49:47;17.69;27.92
67093;SHT31;54011;50.772;7.730;2023-04-03T14:54:50;17.40;28.87
67093;SHT31;54011;50.772;7.730;2023-04-03T14:57:16;18.08;28.93
67093;SHT31;54011;50.772;7.730;2023-04-03T14:59:43;18.52;30.22
67093;SHT31;54011;50.772;7.730;2023-04-03T15:02:33;16.43;30.73
67093;SHT31;54011;50.772;7.730;2023-04-03T15:05:01;17.15;31.14
67093;SHT31;54011;50.772;7.730;2023-04-03T15:07:30;18.28;30.53
67093;SHT31;54011;50.772;7.730;2023-04-03T15:09:57;19.30;28.99
67093;SHT31;54011;50.772;7.730;2023-04-03T15:12:23;18.76;28.73
67093;SHT31;54011;50.772;7.730;2023-04-03T15:14:52;18.49;29.27
67093;SHT31;54011;50.772;7.730;2023-04-03T15:21:02;19.62;27.33
67093;SHT31;54011;50.772;7.730;2023-04-03T15:23:29;17.81;29.46
67093;SHT31;54011;50.772;7.730;2023-04-03T15:26:06;17.33;29.37
67093;SHT31;54011;50.772;7.730;2023-04-03T15:28:37;18.19;29.84
67093;SHT31;54011;50.772;7.730;2023-04-03T15:31:03;19.07;27.43
67093;SHT31;54011;50.772;7.730;2023-04-03T15:33:39;18.59;27.17
67093;SHT31;54011;50.772;7.730;2023-04-03T15:36:27;17.87;29.35
67093;SHT31;54011;50.772;7.730;2023-04-03T15:38:55;18.77;28.54
67093;SHT31;54011;50.772;7.730;2023-04-03T15:41:21;18.93;28.28
67093;SHT31;54011;50.772;7.730;2023-04-03T15:44:03;18.32;27.57
67093;SHT31;54011;50.772;7.730;2023-04-03T15:46:39;19.35;28.01
67093;SHT31;54011;50.772;7.730;2023-04-03T15:49:05;18.89;28.31
67093;SHT31;54011;50.772;7.730;2023-04-03T15:51:37;18.67;30.70
67093;SHT31;54011;50.772;7.730;2023-04-03T15:54:04;18.97;28.52
67093;SHT31;54011;50.772;7.730;2023-04-03T15:56:30;18.22;29.64
67093;SHT31;54011;50.772;7.730;2023-04-03T15:58:56;18.05;30.33
67093;SHT31;54011;50.772;7.730;2023-04-03T16:01:21;17.57;30.03
67093;SHT31;54011;50.772;7.730;2023-04-03T16:03:47;19.08;27.94
67093;SHT31;54011;50.772;7.730;2023-04-03T16:06:14;17.95;29.08
67093;SHT31;54011;50.772;7.730;2023-04-03T16:08:41;17.70;29.33
67093;SHT31;54011;50.772;7.730;2023-04-03T16:11:08;18.09;29.26
67093;SHT31;54011;50.772;7.730;2023-04-03T16:13:34;19.03;30.14
67093;SHT31;54011;50.772;7.730;2023-04-03T16:16:00;18.55;28.96
67093;SHT31;54011;50.772;7.730;2023-04-03T16:18:27;17.69;31.27
67093;SHT31;54011;50.772;7.730;2023-04-03T16:20:53;16.92;31.32
67093;SHT31;54011;50.772;7.730;2023-04-03T16:23:23;18.76;28.31
67093;SHT31;54011;50.772;7.730;2023-04-03T16:25:49;17.84;29.08
67093;SHT31;54011;50.772;7.730;2023-04-03T16:28:18;17.35;29.41
67093;SHT31;54011;50.772;7.730;2023-04-03T16:30:45;15.90;30.71
67093;SHT31;54011;50.772;7.730;2023-04-03T16:33:12;16.91;29.60
67093;SHT31;54011;50.772;7.730;2023-04-03T16:35:38;16.84;30.29
67093;SHT31;54011;50.772;7.730;2023-04-03T16:38:04;17.74;30.93
67093;SHT31;54011;50.772;7.730;2023-04-03T16:40:30;17.87;30.45
67093;SHT31;54011;50.772;7.730;2023-04-03T16:42:56;18.57;28.98
67093;SHT31;54011;50.772;7.730;2023-04-03T16:45:22;17.25;30.40
67093;SHT31;54011;50.772;7.730;2023-04-03T16:47:47;16.26;30.92
67093;SHT31;54011;50.772;7.730;2023-04-03T16:50:13;17.19;30.20
67093;SHT31;54011;50.772;7.730;2023-04-03T16:52:38;15.81;32.03
67093;SHT31;54011;50.772;7.730;2023-04-03T16:55:04;15.69;31.50
67093;SHT31;54011;50.772;7.730;2023-04-03T16:57:30;16.05;32.46
67093;SHT31;54011;50.772;7.730;2023-04-03T16:59:55;15.70;32.64
67093;SHT31;54011;50.772;7.730;2023-04-03T17:02:23;14.56;33.36
67093;SHT31;54011;50.772;7.730;2023-04-03T17:04:51;13.70;35.19
67093;SHT31;54011;50.772;7.730;2023-04-03T17:07:18;14.15;32.97
67093;SHT31;54011;50.772;7.730;2023-04-03T17:09:44;14.11;33.75
67093;SHT31;54011;50.772;7.730;2023-04-03T17:12:18;14.59;33.88
67093;SHT31;54011;50.772;7.730;2023-04-03T17:14:51;14.74;34.05
67093;SHT31;54011;50.772;7.730;2023-04-03T17:17:22;14.73;33.85
67093;SHT31;54011;50.772;7.730;2023-04-03T17:20:07;13.88;35.47
67093;SHT31;54011;50.772;7.730;2023-04-03T17:22:33;12.86;37.06
67093;SHT31;54011;50.772;7.730;2023-04-03T17:24:58;12.03;38.40
67093;SHT31;54011;50.772;7.730;2023-04-03T17:27:24;12.58;37.57
67093;SHT31;54011;50.772;7.730;2023-04-03T17:29:53;11.97;38.60
67093;SHT31;54011;50.772;7.730;2023-04-03T17:32:18;11.62;39.46
67093;SHT31;54011;50.772;7.730;2023-04-03T17:34:47;12.37;38.56
67093;SHT31;54011;50.772;7.730;2023-04-03T17:37:13;11.65;39.16
67093;SHT31;54011;50.772;7.730;2023-04-03T17:39:38;11.70;41.00